createdAt,value
2023-02-17T00:00:58.940Z,41.40
2023-02-17T00:03:26.418Z,42.35
2023-02-17T00:05:53.632Z,41.22
2023-02-17T00:08:21.049Z,39.47
2023-02-17T00:10:55.631Z,41.58
2023-02-17T00:13:22.893Z,42.47
2023-02-17T00:15:50.022Z,40.55
2023-02-17T00:18:17.182Z,38.38
2023-02-17T00:20:44.332Z,41.92
2023-02-17T00:23:11.669Z,36.63
2023-02-17T00:25:39.262Z,38.47
2023-02-17T00:28:06.864Z,35.80
2023-02-17T00:30:34.028Z,38.97
2023-02-17T00:33:01.617Z,40.13
2023-02-17T00:35:28.786Z,43.15
2023-02-17T00:37:56.107Z,41.35
2023-02-17T00:40:23.295Z,39.58
2023-02-17T00:42:50.506Z,39.20
2023-02-17T00:45:18.587Z,37.95
2023-02-17T00:47:45.687Z,41.15
2023-02-17T00:50:12.778Z,36.72
2023-02-17T00:52:39.919Z,36.45
2023-02-17T00:55:10.648Z,31.75
2023-02-17T00:57:37.907Z,37.75
2023-02-17T01:00:05.343Z,34.33
2023-02-17T01:02:34.224Z,34.95
2023-02-17T01:05:01.595Z,38.67
2023-02-17T01:07:28.812Z,33.95
2023-02-17T01:09:55.927Z,34.53
2023-02-17T01:12:22.804Z,32.13
2023-02-17T01:14:51.934Z,31.17
2023-02-17T01:17:18.693Z,33.08
2023-02-17T01:19:45.833Z,29.75
2023-02-17T01:22:12.955Z,31.55
2023-02-17T01:24:40.482Z,34.05
2023-02-17T01:27:07.640Z,35.03
2023-02-17T01:29:34.850Z,33.67
2023-02-17T01:32:04.037Z,37.08
2023-02-17T01:34:31.256Z,30.27
2023-02-17T01:36:59.727Z,29.25
2023-02-17T01:39:26.878Z,32.13
2023-02-17T01:41:54.041Z,33.63
2023-02-17T01:44:25.886Z,31.15
2023-02-17T01:46:54.431Z,25.17
2023-02-17T01:49:21.546Z,30.77
2023-02-17T01:51:51.892Z,29.90
2023-02-17T01:54:22.704Z,31.10
2023-02-17T01:56:51.512Z,35.30
2023-02-17T01:59:21.799Z,34.17
2023-02-17T02:01:51.268Z,36.17
2023-02-17T02:04:21.554Z,35.50
2023-02-17T02:06:49.154Z,32.95
2023-02-17T02:09:18.812Z,38.80
2023-02-17T02:11:48.239Z,35.85
2023-02-17T02:14:16.940Z,36.65
2023-02-17T02:16:56.277Z,38.72
2023-02-17T02:19:35.529Z,31.65
2023-02-17T02:22:22.197Z,34.47
2023-02-17T02:24:58.159Z,40.83
2023-02-17T02:27:28.288Z,36.53
2023-02-17T02:29:59.333Z,41.38
2023-02-17T02:32:49.259Z,41.80
2023-02-17T02:35:29.353Z,44.13
2023-02-17T02:38:15.455Z,55.53
2023-02-17T02:40:49.806Z,44.08
2023-02-17T02:43:17.130Z,42.30
2023-02-17T02:45:44.402Z,41.72
2023-02-17T02:48:11.669Z,45.60
2023-02-17T02:50:58.251Z,42.78
2023-02-17T02:53:46.571Z,45.15
2023-02-17T02:56:15.385Z,40.85
2023-02-17T02:58:48.313Z,41.28
2023-02-17T03:01:20.153Z,45.83
2023-02-17T03:03:49.553Z,45.90
2023-02-17T03:06:21.023Z,43.35
2023-02-17T03:08:51.580Z,50.22
2023-02-17T03:11:32.247Z,45.42
2023-02-17T03:14:05.818Z,47.15
2023-02-17T03:16:33.889Z,49.22
2023-02-17T03:19:01.026Z,49.58
2023-02-17T03:21:33.697Z,47.70
2023-02-17T03:24:00.784Z,50.38
2023-02-17T03:26:28.733Z,49.75
2023-02-17T03:28:56.853Z,46.83
2023-02-17T03:31:24.081Z,53.88
2023-02-17T03:33:51.435Z,46.80
2023-02-17T03:36:18.804Z,51.13
2023-02-17T03:38:46.705Z,52.00
2023-02-17T03:41:13.855Z,44.88
2023-02-17T03:43:41.025Z,43.58
2023-02-17T03:46:12.059Z,43.55
2023-02-17T03:48:39.581Z,46.03
2023-02-17T03:51:17.915Z,42.35
2023-02-17T03:53:45.281Z,43.03
2023-02-17T03:56:12.960Z,47.42
2023-02-17T03:58:40.746Z,41.85
2023-02-17T04:01:09.296Z,43.60
2023-02-17T04:03:37.051Z,44.78
2023-02-17T04:06:04.914Z,42.75
2023-02-17T04:08:32.762Z,47.10
2023-02-17T04:11:00.787Z,42.83
2023-02-17T04:13:28.116Z,44.42
2023-02-17T04:16:14.364Z,38.08
2023-02-17T04:18:41.554Z,40.22
2023-02-17T04:21:09.023Z,33.70
2023-02-17T04:23:36.951Z,37.35
2023-02-17T04:26:05.381Z,36.60
2023-02-17T04:28:32.664Z,32.00
2023-02-17T04:31:00.372Z,35.75
2023-02-17T04:33:27.574Z,34.78
2023-02-17T04:35:59.503Z,33.17
2023-02-17T04:38:30.736Z,31.85
2023-02-17T04:40:58.740Z,33.75
2023-02-17T04:43:26.657Z,29.35
2023-02-17T04:45:54.088Z,29.15
2023-02-17T04:48:21.379Z,29.73
2023-02-17T04:50:48.578Z,28.05
2023-02-17T04:53:15.933Z,30.00
2023-02-17T04:55:43.012Z,27.27
2023-02-17T04:58:10.556Z,31.90
2023-02-17T05:00:37.969Z,31.92
2023-02-17T05:03:07.653Z,28.55
2023-02-17T05:05:38.688Z,26.73
2023-02-17T05:08:06.641Z,31.15
2023-02-17T05:10:37.612Z,25.20
2023-02-17T05:13:04.822Z,30.83
2023-02-17T05:15:34.626Z,28.30
2023-02-17T05:18:02.113Z,27.13
2023-02-17T05:20:29.583Z,22.70
2023-02-17T05:22:56.751Z,32.47
2023-02-17T05:25:23.998Z,31.05
2023-02-17T05:27:51.129Z,33.92
2023-02-17T05:30:18.300Z,31.73
2023-02-17T05:32:45.564Z,34.22
2023-02-17T05:35:12.797Z,34.25
2023-02-17T05:37:39.959Z,31.20
2023-02-17T05:40:07.520Z,33.30
2023-02-17T05:42:34.664Z,33.63
2023-02-17T05:45:01.781Z,33.10
2023-02-17T05:47:28.950Z,33.72
2023-02-17T05:49:56.095Z,36.53
2023-02-17T05:52:23.238Z,35.65
2023-02-17T05:54:50.426Z,38.28
2023-02-17T05:57:17.521Z,35.58
2023-02-17T05:59:44.661Z,40.05
2023-02-17T06:02:11.754Z,37.33
2023-02-17T06:04:38.937Z,39.10
2023-02-17T06:07:06.148Z,35.30
2023-02-17T06:09:33.294Z,37.80
2023-02-17T06:12:00.432Z,38.33
2023-02-17T06:14:27.561Z,40.42
2023-02-17T06:16:56.765Z,45.42
2023-02-17T06:19:24.123Z,35.83
2023-02-17T06:21:51.262Z,43.45
2023-02-17T06:24:18.424Z,42.38
2023-02-17T06:26:45.559Z,43.22
2023-02-17T06:29:12.663Z,39.30
2023-02-17T06:31:40.182Z,39.15
2023-02-17T06:34:07.615Z,42.92
2023-02-17T06:36:34.793Z,39.47
2023-02-17T06:39:01.977Z,39.28
2023-02-17T06:41:29.036Z,38.05
2023-02-17T06:43:56.186Z,38.58
2023-02-17T06:46:23.268Z,42.25
2023-02-17T06:48:50.409Z,36.72
2023-02-17T06:51:17.577Z,41.38
2023-02-17T06:53:44.714Z,43.15
2023-02-17T06:56:11.846Z,36.00
2023-02-17T06:58:38.965Z,38.90
2023-02-17T07:01:08.082Z,36.42
2023-02-17T07:03:35.163Z,42.15
2023-02-17T07:06:02.396Z,36.60
2023-02-17T07:08:29.624Z,45.70
2023-02-17T07:10:58.699Z,37.75
2023-02-17T07:13:25.783Z,40.35
2023-02-17T07:15:52.940Z,40.40
2023-02-17T07:18:20.081Z,35.42
2023-02-17T07:20:48.456Z,39.33
2023-02-17T07:23:15.631Z,37.65
2023-02-17T07:25:43.161Z,38.42
2023-02-17T07:28:10.311Z,35.75
2023-02-17T07:30:40.957Z,37.97
2023-02-17T07:33:08.539Z,40.97
2023-02-17T07:35:35.625Z,35.97
2023-02-17T07:38:02.769Z,41.47
2023-02-17T07:40:29.940Z,34.88
2023-02-17T07:42:58.412Z,42.80
2023-02-17T07:45:25.554Z,40.08
2023-02-17T07:47:55.692Z,35.30
2023-02-17T07:50:22.790Z,41.35
2023-02-17T07:52:50.995Z,37.85
2023-02-17T07:55:18.201Z,38.30
2023-02-17T07:57:45.343Z,37.05
2023-02-17T08:00:12.726Z,37.45
2023-02-17T08:02:40.285Z,38.05
2023-02-17T08:05:07.372Z,34.80
2023-02-17T08:07:34.849Z,40.03
2023-02-17T08:10:20.632Z,39.13
2023-02-17T08:13:06.545Z,35.33
2023-02-17T08:15:34.882Z,39.92
2023-02-17T08:18:02.289Z,35.97
2023-02-17T08:20:29.351Z,33.67
2023-02-17T08:22:56.439Z,32.58
2023-02-17T08:25:23.519Z,33.60
2023-02-17T08:27:50.771Z,35.10
2023-02-17T08:30:17.952Z,34.95
2023-02-17T08:32:47.654Z,33.17
2023-02-17T08:35:14.871Z,38.58
2023-02-17T08:37:41.999Z,33.38
2023-02-17T08:40:09.470Z,32.15
2023-02-17T08:42:36.608Z,35.17
2023-02-17T08:45:04.500Z,35.42
2023-02-17T08:47:31.790Z,28.92
2023-02-17T08:49:58.885Z,34.30
2023-02-17T08:52:25.994Z,32.63
2023-02-17T08:54:53.208Z,32.80
2023-02-17T08:57:21.456Z,31.00
2023-02-17T08:59:48.867Z,28.25
2023-02-17T09:02:16.906Z,32.33
2023-02-17T09:04:44.128Z,27.58
2023-02-17T09:07:12.849Z,31.70
2023-02-17T09:09:40.252Z,30.40
2023-02-17T09:12:07.759Z,28.10
2023-02-17T09:14:35.126Z,29.85
2023-02-17T09:17:02.310Z,25.67
2023-02-17T09:19:29.557Z,30.88
2023-02-17T09:21:56.939Z,28.83
2023-02-17T09:24:24.051Z,28.58
2023-02-17T09:26:51.479Z,27.45
2023-02-17T09:29:19.780Z,25.60
2023-02-17T09:31:47.117Z,23.83
2023-02-17T09:34:15.374Z,23.52
2023-02-17T09:36:42.812Z,23.33
2023-02-17T09:39:12.424Z,25.52
2023-02-17T09:41:52.347Z,21.10
2023-02-17T09:44:26.473Z,20.73
2023-02-17T09:47:03.121Z,23.00
2023-02-17T09:49:36.906Z,22.38
2023-02-17T09:52:17.267Z,21.77
2023-02-17T09:54:50.342Z,19.67
2023-02-17T09:57:21.829Z,20.48
2023-02-17T09:59:58.186Z,21.02
2023-02-17T10:02:34.019Z,22.65
2023-02-17T10:05:03.623Z,18.33
2023-02-17T10:07:35.239Z,21.00
2023-02-17T10:10:35.696Z,19.77
2023-02-17T10:13:03.351Z,21.20
2023-02-17T10:15:32.679Z,17.98
2023-02-17T10:18:04.740Z,18.10
2023-02-17T10:20:36.889Z,18.83
2023-02-17T10:23:07.094Z,21.50
2023-02-17T10:25:40.310Z,16.23
2023-02-17T10:28:07.393Z,19.17
2023-02-17T10:30:53.687Z,15.98
2023-02-17T10:33:28.704Z,22.27
2023-02-17T10:36:01.600Z,17.73
2023-02-17T10:38:50.770Z,19.65
2023-02-17T10:41:21.213Z,21.17
2023-02-17T10:43:49.056Z,19.90
2023-02-17T10:46:17.847Z,14.48
2023-02-17T10:48:48.513Z,18.83
2023-02-17T10:51:16.737Z,15.77
2023-02-17T10:53:46.809Z,15.00
2023-02-17T10:56:25.932Z,17.92
2023-02-17T10:58:56.087Z,17.27
2023-02-17T11:01:23.331Z,16.80
2023-02-17T11:04:01.041Z,18.50
2023-02-17T11:06:28.230Z,19.88
2023-02-17T11:08:59.351Z,17.02
2023-02-17T11:11:27.901Z,17.63
2023-02-17T11:14:07.505Z,18.48
2023-02-17T11:16:39.619Z,15.98
2023-02-17T11:19:07.562Z,19.45
2023-02-17T11:21:35.931Z,22.25
2023-02-17T11:24:05.678Z,17.85
2023-02-17T11:26:34.918Z,17.63
2023-02-17T11:29:12.324Z,15.80
2023-02-17T11:31:42.626Z,17.17
2023-02-17T11:34:16.119Z,20.45
2023-02-17T11:36:45.789Z,16.05
2023-02-17T11:39:20.081Z,21.20
2023-02-17T11:41:47.227Z,16.80
2023-02-17T11:44:23.104Z,16.73
2023-02-17T11:46:57.968Z,15.43
2023-02-17T11:49:25.103Z,17.30
2023-02-17T11:51:56.130Z,15.52
2023-02-17T11:54:32.299Z,13.80
2023-02-17T11:57:14.934Z,16.70
2023-02-17T11:59:42.001Z,16.50
2023-02-17T12:02:14.764Z,13.07
2023-02-17T12:04:47.688Z,12.15
2023-02-17T12:07:28.270Z,17.13
2023-02-17T12:10:08.186Z,19.23
2023-02-17T12:12:41.180Z,15.25
2023-02-17T12:15:18.358Z,11.48
2023-02-17T12:18:04.840Z,10.95
2023-02-17T12:20:39.567Z,12.57
2023-02-17T12:23:09.518Z,10.60
2023-02-17T12:25:47.758Z,12.00
2023-02-17T12:28:44.168Z,10.00
2023-02-17T12:31:30.020Z,11.52
2023-02-17T12:34:08.129Z,7.53
2023-02-17T12:36:38.056Z,9.40
2023-02-17T12:39:13.939Z,10.15
2023-02-17T12:41:52.501Z,6.93
2023-02-17T12:44:28.313Z,8.48
2023-02-17T12:46:58.019Z,9.00
2023-02-17T12:49:32.069Z,7.32
2023-02-17T12:52:27.221Z,7.18
2023-02-17T12:55:48.630Z,7.60
2023-02-17T12:58:20.510Z,9.05
2023-02-17T13:00:50.375Z,9.40
2023-02-17T13:03:18.207Z,9.82
2023-02-17T13:05:51.280Z,10.85
2023-02-17T13:08:27.249Z,8.52
2023-02-17T13:11:01.596Z,9.02
2023-02-17T13:13:33.104Z,8.82
2023-02-17T13:16:14.334Z,7.32
2023-02-17T13:18:43.000Z,9.45
2023-02-17T13:21:16.215Z,7.93
2023-02-17T13:23:44.324Z,7.65
2023-02-17T13:26:23.561Z,10.40
2023-02-17T13:28:53.307Z,9.45
2023-02-17T13:31:25.522Z,7.65
2023-02-17T13:33:54.123Z,8.07
2023-02-17T13:36:41.489Z,7.50
2023-02-17T13:39:27.213Z,8.05
2023-02-17T13:41:55.928Z,5.75
2023-02-17T13:44:30.609Z,7.82
2023-02-17T13:47:00.314Z,8.38
2023-02-17T13:49:28.712Z,7.95
2023-02-17T13:51:55.844Z,8.98
2023-02-17T13:54:23.978Z,8.10
2023-02-17T13:56:52.307Z,10.32
2023-02-17T13:59:28.169Z,6.65
2023-02-17T14:01:55.349Z,6.28
2023-02-17T14:04:30.590Z,6.15
2023-02-17T14:06:59.362Z,10.52
2023-02-17T14:09:26.568Z,8.30
2023-02-17T14:11:54.508Z,9.00
2023-02-17T14:14:24.027Z,6.43
2023-02-17T14:17:11.502Z,7.15
2023-02-17T14:19:49.034Z,6.63
2023-02-17T14:22:30.897Z,9.85
2023-02-17T14:25:04.853Z,8.17
2023-02-17T14:27:45.721Z,6.93
2023-02-17T14:30:28.380Z,11.32
2023-02-17T14:33:08.584Z,8.77
2023-02-17T14:35:39.145Z,7.40
2023-02-17T14:38:10.456Z,7.55
2023-02-17T14:40:40.016Z,6.70
2023-02-17T14:43:07.312Z,9.57
2023-02-17T14:45:34.464Z,8.85
2023-02-17T14:48:01.701Z,6.03
2023-02-17T14:50:28.909Z,6.35
2023-02-17T14:52:56.342Z,9.45
2023-02-17T14:55:38.320Z,4.40
2023-02-17T14:58:05.790Z,7.38
2023-02-17T15:00:32.887Z,6.60
2023-02-17T15:03:00.055Z,8.32
2023-02-17T15:05:27.191Z,6.65
2023-02-17T15:07:54.320Z,6.88
2023-02-17T15:10:26.364Z,8.10
2023-02-17T15:12:53.909Z,6.82
2023-02-17T15:15:21.306Z,8.43
2023-02-17T15:17:48.777Z,7.18
2023-02-17T15:20:16.635Z,8.02
2023-02-17T15:22:44.337Z,10.75
2023-02-17T15:25:19.118Z,10.20
2023-02-17T15:27:46.856Z,8.52
2023-02-17T15:30:15.303Z,9.55
2023-02-17T15:32:42.789Z,6.90
2023-02-17T15:35:20.834Z,7.88
2023-02-17T15:37:48.270Z,8.48
2023-02-17T15:40:22.888Z,4.63
2023-02-17T15:42:52.661Z,9.23
2023-02-17T15:45:20.412Z,11.35
2023-02-17T15:47:47.934Z,10.68
2023-02-17T15:50:20.659Z,8.70
2023-02-17T15:52:48.289Z,8.18
2023-02-17T15:55:15.359Z,8.68
2023-02-17T15:57:46.025Z,9.02
2023-02-17T16:00:21.053Z,13.38
2023-02-17T16:02:48.191Z,6.70
2023-02-17T16:05:16.710Z,9.95
2023-02-17T16:07:44.440Z,12.55
2023-02-17T16:10:12.799Z,9.25
2023-02-17T16:12:40.528Z,8.07
2023-02-17T16:15:09.264Z,10.95
2023-02-17T16:17:36.479Z,11.00
2023-02-17T16:20:03.683Z,9.93
2023-02-17T16:22:30.867Z,12.20
2023-02-17T16:24:58.019Z,11.88
2023-02-17T16:27:25.243Z,12.77
2023-02-17T16:29:52.445Z,12.23
2023-02-17T16:32:19.770Z,10.10
2023-02-17T16:34:48.975Z,11.02
2023-02-17T16:37:17.316Z,12.32
2023-02-17T16:39:45.011Z,14.35
2023-02-17T16:42:14.642Z,10.05
2023-02-17T16:44:44.504Z,11.38
2023-02-17T16:47:18.890Z,13.40
2023-02-17T16:49:47.249Z,10.68
2023-02-17T16:52:40.428Z,16.08
2023-02-17T16:55:07.558Z,19.95
2023-02-17T16:57:35.944Z,10.13
2023-02-17T17:00:04.491Z,9.25
2023-02-17T17:02:31.638Z,7.90
2023-02-17T17:04:59.616Z,11.07
2023-02-17T17:07:31.586Z,10.50
2023-02-17T17:10:15.451Z,10.90
2023-02-17T17:12:44.205Z,10.18
2023-02-17T17:15:11.610Z,8.98
2023-02-17T17:17:45.307Z,6.90
2023-02-17T17:20:14.111Z,6.78
2023-02-17T17:22:41.407Z,13.88
2023-02-17T17:25:11.374Z,5.55
2023-02-17T17:27:41.713Z,11.10
2023-02-17T17:30:09.596Z,7.57
2023-02-17T17:32:36.720Z,7.45
2023-02-17T17:35:04.041Z,12.40
2023-02-17T17:37:31.112Z,7.53
2023-02-17T17:39:58.317Z,7.00
2023-02-17T17:42:25.379Z,9.73
2023-02-17T17:44:54.773Z,12.77
2023-02-17T17:47:29.731Z,12.40
2023-02-17T17:49:57.768Z,10.10
2023-02-17T17:52:24.991Z,14.52
2023-02-17T17:54:52.219Z,10.38
2023-02-17T17:57:19.331Z,10.55
2023-02-17T17:59:46.463Z,13.25
2023-02-17T18:02:13.533Z,8.10
2023-02-17T18:04:40.646Z,13.93
2023-02-17T18:07:08.188Z,7.82
2023-02-17T18:09:36.777Z,15.10
2023-02-17T18:12:07.957Z,9.95
2023-02-17T18:14:38.358Z,6.60
2023-02-17T18:17:10.907Z,7.22
2023-02-17T18:19:38.291Z,8.55
2023-02-17T18:22:05.488Z,10.43
2023-02-17T18:24:32.937Z,10.15
2023-02-17T18:27:00.183Z,11.60
2023-02-17T18:29:27.834Z,13.38
2023-02-17T18:31:55.116Z,14.13
2023-02-17T18:34:22.604Z,10.32
2023-02-17T18:36:49.672Z,13.77
2023-02-17T18:39:17.090Z,9.02
2023-02-17T18:41:44.196Z,13.57
2023-02-17T18:44:13.551Z,12.40
2023-02-17T18:46:41.236Z,6.95
2023-02-17T18:49:08.636Z,8.70
2023-02-17T18:51:36.110Z,9.40
2023-02-17T18:54:03.986Z,10.27
2023-02-17T18:56:32.976Z,13.90
2023-02-17T18:59:00.288Z,10.88
2023-02-17T19:01:29.648Z,12.32
2023-02-17T19:03:57.401Z,8.77
2023-02-17T19:06:28.873Z,9.32
2023-02-17T19:08:56.428Z,12.73
2023-02-17T19:11:24.299Z,10.35
2023-02-17T19:13:51.702Z,6.53
2023-02-17T19:16:20.629Z,11.43
2023-02-17T19:18:48.401Z,11.85
2023-02-17T19:21:18.070Z,6.63
2023-02-17T19:23:48.394Z,10.63
2023-02-17T19:26:16.893Z,9.93
2023-02-17T19:28:45.071Z,8.60
2023-02-17T19:31:14.265Z,11.10
2023-02-17T19:33:49.131Z,11.95
2023-02-17T19:36:18.091Z,9.40
2023-02-17T19:38:45.505Z,11.40
2023-02-17T19:41:13.343Z,12.88
2023-02-17T19:43:40.713Z,7.70
2023-02-17T19:46:08.510Z,10.57
2023-02-17T19:48:35.892Z,9.32
2023-02-17T19:51:04.672Z,7.00
2023-02-17T19:53:33.130Z,8.02
2023-02-17T19:56:24.540Z,15.50
2023-02-17T19:58:52.041Z,11.63
2023-02-17T20:01:20.654Z,9.88
2023-02-17T20:03:47.803Z,5.97
2023-02-17T20:06:17.972Z,12.25
2023-02-17T20:08:46.165Z,10.00
2023-02-17T20:11:13.828Z,9.45
2023-02-17T20:13:46.252Z,11.55
2023-02-17T20:16:14.531Z,10.77
2023-02-17T20:18:42.989Z,8.32
2023-02-17T20:21:10.601Z,13.23
2023-02-17T20:23:37.737Z,8.18
2023-02-17T20:26:06.743Z,10.10
2023-02-17T20:28:34.401Z,10.40
2023-02-17T20:31:01.878Z,12.00
2023-02-17T20:33:29.213Z,11.68
2023-02-17T20:35:56.364Z,13.43
2023-02-17T20:38:23.530Z,8.43
2023-02-17T20:40:51.081Z,9.10
2023-02-17T20:43:21.801Z,13.48
2023-02-17T20:45:54.443Z,9.57
2023-02-17T20:51:05.747Z,10.93
2023-02-17T20:53:33.623Z,16.63
2023-02-17T20:56:28.588Z,5.53
2023-02-17T20:58:58.742Z,12.70
2023-02-17T21:01:28.835Z,10.57
2023-02-17T21:03:56.981Z,10.35
2023-02-17T21:06:47.064Z,11.32
2023-02-17T21:09:16.859Z,8.15
2023-02-17T21:11:46.745Z,16.77
2023-02-17T21:14:14.582Z,9.40
2023-02-17T21:16:41.766Z,14.60
2023-02-17T21:19:09.370Z,13.55
2023-02-17T21:21:37.006Z,9.90
2023-02-17T21:24:07.080Z,16.40
2023-02-17T21:26:34.471Z,11.45
2023-02-17T21:29:07.825Z,12.05
2023-02-17T21:31:37.703Z,7.85
2023-02-17T21:34:04.996Z,9.65
2023-02-17T21:36:32.510Z,12.50
2023-02-17T21:39:01.298Z,14.02
2023-02-17T21:41:30.279Z,8.57
2023-02-17T21:44:16.230Z,12.00
2023-02-17T21:46:44.150Z,9.40
2023-02-17T21:49:12.028Z,9.48
2023-02-17T21:51:39.856Z,6.88
2023-02-17T21:54:11.566Z,14.45
2023-02-17T21:56:39.276Z,11.25
2023-02-17T21:59:06.837Z,8.85
2023-02-17T22:01:34.241Z,12.55
2023-02-17T22:04:05.313Z,7.72
2023-02-17T22:06:34.226Z,14.20
2023-02-17T22:09:04.140Z,18.25
2023-02-17T22:11:32.291Z,13.52
2023-02-17T22:14:00.987Z,11.77
2023-02-17T22:16:30.289Z,13.95
2023-02-17T22:18:57.772Z,11.07
2023-02-17T22:21:25.077Z,11.75
2023-02-17T22:23:52.201Z,13.63
2023-02-17T22:26:22.029Z,11.35
2023-02-17T22:28:49.265Z,11.40
2023-02-17T22:31:17.943Z,15.10
2023-02-17T22:33:45.444Z,10.77
2023-02-17T22:36:14.138Z,17.65
2023-02-17T22:38:41.448Z,13.38
2023-02-17T22:41:09.628Z,9.93
2023-02-17T22:43:37.658Z,12.65
2023-02-17T22:46:06.029Z,11.60
2023-02-17T22:48:34.371Z,10.65
2023-02-17T22:51:08.042Z,7.80
2023-02-17T22:53:36.186Z,13.50
2023-02-17T22:56:03.932Z,9.73
2023-02-17T22:58:31.008Z,12.43
2023-02-17T23:01:05.456Z,10.48
2023-02-17T23:03:32.681Z,13.23
2023-02-17T23:06:01.193Z,16.20
2023-02-17T23:08:28.460Z,18.27
2023-02-17T23:10:55.580Z,10.45
2023-02-17T23:13:22.841Z,11.82
2023-02-17T23:15:50.075Z,14.77
2023-02-17T23:18:18.536Z,11.05
2023-02-17T23:20:47.255Z,7.78
2023-02-17T23:23:14.982Z,10.75
2023-02-17T23:25:43.002Z,10.43
2023-02-17T23:28:10.847Z,11.85
2023-02-17T23:30:38.049Z,10.80
2023-02-17T23:33:05.221Z,14.75
2023-02-17T23:35:32.374Z,9.75
2023-02-17T23:38:00.690Z,10.45
2023-02-17T23:40:27.928Z,15.50
2023-02-17T23:42:55.062Z,12.38
2023-02-17T23:45:22.224Z,7.18
2023-02-17T23:47:52.156Z,9.00
2023-02-17T23:50:20.797Z,11.18
2023-02-17T23:52:47.991Z,12.40
2023-02-17T23:55:15.070Z,14.20
2023-02-17T23:57:42.203Z,10.65
